Bailey, North Carolina
Current Conditions -  °F | °C
As of 10:53 PM on Tuesday 25 Nov 2014 (Local Time) from KRWI Reporting Station
Light Rain Light Rain  
Wind Chill: 52°   Ceiling: 300
Heat Index: 52°   Visibility: 6mi
Dew Point: 51°   Wind: 7mph
Humidity: 97%   Direction: 20°NNE
Pressure: 30.07"   Gusts: NA
Location:  35.78°N, 78.12°W
Report Text: KRWI 260353Z AUTO 02006KT 6SM -RA BR OVC003 11/11 A3007 RMK AO2 SLP182 P0001 T01110106
Loading
Personal Weather Stations






























Interactive Weather Map New forecast layout! Learn more

10-Day Weather Forecast

Advertisements
Track Severe Weather on mobile